createdAt,value
2018-03-07T00:01:46.841Z,83.80
2018-03-07T00:04:14.313Z,83.80
2018-03-07T00:06:41.793Z,83.70
2018-03-07T00:09:10.011Z,83.90
2018-03-07T00:11:37.456Z,83.90
2018-03-07T00:14:04.944Z,84.20
2018-03-07T00:16:32.570Z,84.70
2018-03-07T00:19:00.042Z,84.80
2018-03-07T00:21:27.523Z,84.90
2018-03-07T00:23:55.012Z,85.40
2018-03-07T00:26:23.234Z,84.50
2018-03-07T00:28:50.701Z,84.40
2018-03-07T00:31:18.178Z,84.20
2018-03-07T00:33:46.417Z,84.70
2018-03-07T00:36:13.898Z,83.90
2018-03-07T00:38:41.376Z,83.80
2018-03-07T00:41:09.610Z,83.80
2018-03-07T00:43:37.093Z,83.80
2018-03-07T00:46:04.569Z,83.50
2018-03-07T00:48:33.030Z,83.80
2018-03-07T00:51:00.501Z,83.70
2018-03-07T00:53:28.741Z,83.90
2018-03-07T00:55:56.220Z,83.90
2018-03-07T00:58:24.437Z,83.70
2018-03-07T01:00:51.892Z,83.70
2018-03-07T01:03:19.366Z,83.70
2018-03-07T01:05:47.624Z,83.60
2018-03-07T01:08:15.093Z,83.60
2018-03-07T01:10:42.541Z,83.50
2018-03-07T01:13:10.013Z,83.20
2018-03-07T01:15:37.484Z,83.10
2018-03-07T01:18:04.957Z,83.10
2018-03-07T01:20:33.176Z,83.20
2018-03-07T01:23:00.644Z,83.20
2018-03-07T01:25:28.121Z,82.90
2018-03-07T01:27:55.611Z,82.90
2018-03-07T01:30:23.829Z,83.40
2018-03-07T01:32:51.313Z,83.40
2018-03-07T01:35:18.790Z,83.50
2018-03-07T01:37:47.004Z,83.20
2018-03-07T01:40:14.479Z,83.20
2018-03-07T01:42:41.932Z,83.20
2018-03-07T01:45:09.421Z,83.00
2018-03-07T01:47:36.895Z,83.00
2018-03-07T01:50:05.133Z,82.90
2018-03-07T01:52:32.584Z,83.00
2018-03-07T01:55:00.389Z,82.90
2018-03-07T01:57:28.669Z,83.10
2018-03-07T01:59:56.148Z,83.10
2018-03-07T02:02:23.605Z,83.40
2018-03-07T02:04:51.084Z,83.50
2018-03-07T02:07:18.594Z,83.50
2018-03-07T02:09:46.049Z,83.40
2018-03-07T02:12:13.497Z,83.40
2018-03-07T02:14:41.744Z,83.00
2018-03-07T02:17:09.223Z,83.00
2018-03-07T02:19:37.445Z,83.30
2018-03-07T02:22:05.682Z,82.80
2018-03-07T02:24:33.169Z,83.10
2018-03-07T02:27:01.477Z,83.10
2018-03-07T02:29:28.952Z,83.00
2018-03-07T02:31:57.181Z,83.40
2018-03-07T02:34:24.695Z,83.40
2018-03-07T02:36:52.938Z,83.50
2018-03-07T02:39:20.412Z,83.50
2018-03-07T02:41:48.890Z,83.20
2018-03-07T02:44:17.142Z,83.00
2018-03-07T02:46:44.625Z,83.00
2018-03-07T02:49:12.880Z,83.30
2018-03-07T02:51:40.348Z,83.20
2018-03-07T02:54:08.576Z,83.60
2018-03-07T02:56:36.063Z,83.60
2018-03-07T02:59:03.522Z,83.70
2018-03-07T03:01:30.968Z,83.70
2018-03-07T03:03:58.435Z,83.60
2018-03-07T03:06:25.887Z,83.30
2018-03-07T03:08:53.389Z,83.10
2018-03-07T03:11:20.874Z,83.40
2018-03-07T03:13:48.428Z,83.60
2018-03-07T03:16:15.934Z,83.50
2018-03-07T03:18:44.178Z,83.30
2018-03-07T03:21:11.690Z,83.30
2018-03-07T03:23:39.137Z,83.60
2018-03-07T03:26:06.612Z,83.70
2018-03-07T03:28:34.065Z,83.90
2018-03-07T03:31:01.555Z,83.90
2018-03-07T03:33:29.030Z,84.10
2018-03-07T03:35:56.485Z,83.90
2018-03-07T03:38:23.965Z,84.10
2018-03-07T03:40:51.422Z,84.30
2018-03-07T03:43:18.909Z,84.00
2018-03-07T03:45:46.419Z,83.90
2018-03-07T03:48:13.849Z,83.80
2018-03-07T03:50:41.317Z,84.00
2018-03-07T03:53:08.778Z,84.20
2018-03-07T03:55:36.257Z,84.30
2018-03-07T03:58:03.725Z,85.10
2018-03-07T04:00:31.200Z,84.10
2018-03-07T04:02:58.656Z,83.90
2018-03-07T04:05:26.113Z,84.20
2018-03-07T04:07:53.604Z,84.20
2018-03-07T04:10:21.059Z,84.30
2018-03-07T04:12:48.526Z,84.00
2018-03-07T04:15:16.001Z,84.00
2018-03-07T04:17:44.225Z,84.30
2018-03-07T04:20:14.247Z,84.20
2018-03-07T04:22:42.119Z,84.10
2018-03-07T04:25:09.604Z,84.60
2018-03-07T04:27:37.849Z,85.30
2018-03-07T04:30:05.326Z,85.30
2018-03-07T04:32:33.569Z,85.10
2018-03-07T04:35:01.058Z,85.00
2018-03-07T04:37:29.283Z,85.50
2018-03-07T04:39:56.741Z,85.50
2018-03-07T04:42:24.217Z,85.60
2018-03-07T04:44:51.684Z,85.90
2018-03-07T04:47:19.142Z,86.10
2018-03-07T04:49:46.613Z,86.30
2018-03-07T04:52:14.867Z,86.30
2018-03-07T04:54:42.333Z,86.30
2018-03-07T04:57:09.798Z,86.60
2018-03-07T04:59:37.245Z,86.70
2018-03-07T05:02:04.703Z,86.80
2018-03-07T05:04:32.145Z,87.10
2018-03-07T05:06:59.686Z,87.40
2018-03-07T05:09:27.231Z,87.80
2018-03-07T05:11:54.805Z,88.00
2018-03-07T05:14:22.257Z,88.30
2018-03-07T05:16:50.474Z,89.30
2018-03-07T05:19:18.705Z,89.60
2018-03-07T05:21:46.156Z,89.70
2018-03-07T05:24:13.793Z,89.70
2018-03-07T05:26:41.284Z,89.50
2018-03-07T05:29:08.734Z,89.30
2018-03-07T05:31:36.201Z,89.20
2018-03-07T05:34:04.431Z,88.60
2018-03-07T05:36:31.885Z,88.60
2018-03-07T05:38:59.339Z,88.40
2018-03-07T05:41:26.791Z,88.10
2018-03-07T05:43:54.236Z,88.00
2018-03-07T05:46:22.456Z,87.60
2018-03-07T05:48:49.921Z,87.60
2018-03-07T05:51:17.376Z,87.50
2018-03-07T05:53:44.829Z,87.10
2018-03-07T05:56:12.310Z,87.10
2018-03-07T05:58:39.752Z,86.90
2018-03-07T06:01:07.209Z,87.60
2018-03-07T06:03:34.668Z,86.70
2018-03-07T06:06:02.140Z,86.60
2018-03-07T06:08:29.586Z,86.60
2018-03-07T06:10:57.055Z,86.30
2018-03-07T06:13:25.280Z,85.70
2018-03-07T06:15:52.719Z,85.70
2018-03-07T06:18:20.193Z,85.20
2018-03-07T06:20:47.648Z,84.90
2018-03-07T06:23:15.098Z,84.40
2018-03-07T06:25:42.568Z,84.20
2018-03-07T06:28:10.024Z,83.70
2018-03-07T06:30:37.481Z,83.50
2018-03-07T06:33:04.941Z,83.50
2018-03-07T06:35:32.397Z,83.20
2018-03-07T06:37:59.853Z,83.20
2018-03-07T06:40:27.317Z,82.50
2018-03-07T06:42:54.777Z,82.20
2018-03-07T06:45:22.233Z,82.10
2018-03-07T06:47:50.468Z,81.60
2018-03-07T06:50:17.926Z,81.60
2018-03-07T06:52:45.391Z,81.60
2018-03-07T06:55:12.836Z,81.30
2018-03-07T06:57:40.292Z,81.20
2018-03-07T07:00:07.741Z,80.60
2018-03-07T07:02:35.199Z,80.40
2018-03-07T07:05:02.656Z,80.30
2018-03-07T07:07:30.113Z,79.30
2018-03-07T07:09:57.581Z,79.70
2018-03-07T07:12:25.030Z,79.60
2018-03-07T07:14:52.516Z,79.50
2018-03-07T07:17:19.991Z,79.10
2018-03-07T07:19:47.496Z,79.00
2018-03-07T07:22:15.668Z,78.20
2018-03-07T07:24:43.129Z,78.20
2018-03-07T07:27:10.580Z,78.00
2018-03-07T07:29:38.029Z,78.00
2018-03-07T07:32:05.506Z,78.10
2018-03-07T07:34:33.726Z,77.50
2018-03-07T07:37:01.984Z,76.90
2018-03-07T07:39:29.460Z,76.90
2018-03-07T07:41:56.912Z,76.20
2018-03-07T07:44:25.143Z,74.70
2018-03-07T07:46:52.601Z,74.70
2018-03-07T07:49:20.066Z,74.80
2018-03-07T07:51:47.522Z,73.30
2018-03-07T07:54:14.981Z,73.80
2018-03-07T07:56:42.436Z,73.30
2018-03-07T07:59:09.897Z,73.10
2018-03-07T08:01:37.366Z,73.40
2018-03-07T08:04:04.813Z,72.70
2018-03-07T08:06:32.273Z,71.70
2018-03-07T08:08:59.728Z,70.80
2018-03-07T08:11:27.949Z,69.00
2018-03-07T08:13:55.393Z,69.00
2018-03-07T08:16:22.869Z,68.40
2018-03-07T08:18:50.321Z,68.80
2018-03-07T08:21:17.778Z,68.70
2018-03-07T08:23:45.241Z,68.50
2018-03-07T08:26:12.685Z,67.50
2018-03-07T08:28:40.138Z,67.50
2018-03-07T08:31:07.597Z,67.20
2018-03-07T08:33:35.048Z,67.00
2018-03-07T08:36:02.500Z,65.90
2018-03-07T08:38:29.968Z,66.40
2018-03-07T08:40:57.460Z,65.30
2018-03-07T08:43:24.907Z,65.50
2018-03-07T08:45:52.379Z,65.00
2018-03-07T08:48:19.836Z,61.30
2018-03-07T08:50:47.288Z,62.60
2018-03-07T08:53:14.755Z,62.50
2018-03-07T08:55:42.969Z,61.40
2018-03-07T08:58:10.425Z,61.40
2018-03-07T09:00:37.947Z,61.00
2018-03-07T09:03:05.426Z,61.20
2018-03-07T09:05:32.877Z,60.20
2018-03-07T09:08:00.350Z,60.50
2018-03-07T09:10:27.804Z,60.10
2018-03-07T09:12:55.264Z,60.20
2018-03-07T09:15:22.734Z,58.60
2018-03-07T09:17:50.189Z,57.90
2018-03-07T09:20:18.405Z,57.60
2018-03-07T09:22:46.693Z,56.20
2018-03-07T09:25:14.909Z,56.10
2018-03-07T09:27:42.364Z,56.60
2018-03-07T09:30:10.596Z,55.80
2018-03-07T09:32:38.809Z,54.40
2018-03-07T09:35:06.305Z,54.40
2018-03-07T09:37:33.770Z,54.40
2018-03-07T09:40:01.997Z,54.10
2018-03-07T09:42:29.453Z,54.10
2018-03-07T09:44:56.912Z,54.10
2018-03-07T09:47:24.365Z,53.40
2018-03-07T09:49:51.825Z,53.10
2018-03-07T09:52:19.298Z,52.90
2018-03-07T09:54:46.757Z,52.60
2018-03-07T09:57:14.217Z,53.30
2018-03-07T09:59:41.668Z,53.20
2018-03-07T10:02:09.121Z,51.50
2018-03-07T10:04:36.572Z,51.60
2018-03-07T10:07:04.050Z,51.00
2018-03-07T10:09:31.488Z,50.80
2018-03-07T10:11:58.944Z,50.60
2018-03-07T10:14:26.404Z,51.90
2018-03-07T10:16:53.857Z,51.80
2018-03-07T10:19:21.310Z,51.70
2018-03-07T10:21:48.782Z,49.80
2018-03-07T10:24:16.225Z,50.50
2018-03-07T10:26:43.685Z,50.70
2018-03-07T10:29:11.160Z,50.60
2018-03-07T10:31:39.376Z,51.40
2018-03-07T10:34:06.838Z,51.50
2018-03-07T10:36:34.312Z,51.70
2018-03-07T10:39:01.769Z,50.70
2018-03-07T10:41:29.241Z,51.10
2018-03-07T10:43:56.762Z,51.30
2018-03-07T10:46:24.212Z,51.30
2018-03-07T10:48:51.665Z,51.60
2018-03-07T10:51:19.136Z,52.10
2018-03-07T10:53:46.597Z,52.40
2018-03-07T10:56:14.048Z,51.90
2018-03-07T10:58:41.529Z,51.50
2018-03-07T11:01:08.977Z,51.60
2018-03-07T11:03:36.442Z,51.90
2018-03-07T11:06:03.896Z,52.00
2018-03-07T11:08:31.353Z,51.60
2018-03-07T11:10:58.798Z,51.40
2018-03-07T11:13:26.285Z,51.60
2018-03-07T11:15:54.502Z,51.80
2018-03-07T11:18:21.957Z,51.80
2018-03-07T11:20:49.425Z,51.90
2018-03-07T11:23:16.869Z,51.90
2018-03-07T11:25:44.337Z,51.90
2018-03-07T11:28:11.848Z,50.80
2018-03-07T11:30:39.306Z,51.30
2018-03-07T11:33:06.757Z,51.50
2018-03-07T11:35:34.224Z,50.90
2018-03-07T11:38:01.673Z,51.20
2018-03-07T11:40:29.127Z,51.40
2018-03-07T11:42:56.602Z,51.40
2018-03-07T11:45:24.057Z,51.30
2018-03-07T11:47:51.517Z,51.40
2018-03-07T11:50:19.015Z,51.30
2018-03-07T11:52:46.462Z,51.40
2018-03-07T11:55:13.922Z,51.60
2018-03-07T11:57:41.380Z,50.90
2018-03-07T12:00:08.837Z,51.20
2018-03-07T12:02:36.298Z,51.00
2018-03-07T12:05:03.775Z,51.60
2018-03-07T12:07:31.230Z,50.60
2018-03-07T12:09:59.449Z,50.80
2018-03-07T12:12:26.919Z,50.80
2018-03-07T12:14:54.392Z,50.30
2018-03-07T12:17:21.853Z,50.60
2018-03-07T12:19:49.327Z,50.60
2018-03-07T12:22:17.540Z,50.50
2018-03-07T12:24:45.010Z,50.50
2018-03-07T12:27:12.482Z,50.50
2018-03-07T12:29:39.937Z,50.70
2018-03-07T12:32:07.391Z,50.30
2018-03-07T12:34:34.865Z,50.70
2018-03-07T12:37:03.083Z,51.00
2018-03-07T12:39:30.537Z,51.00
2018-03-07T12:41:57.997Z,51.10
2018-03-07T12:44:25.456Z,51.20
2018-03-07T12:46:52.910Z,51.20
2018-03-07T12:49:20.374Z,51.00
2018-03-07T12:51:47.831Z,50.80
2018-03-07T12:54:15.292Z,50.70
2018-03-07T12:56:42.769Z,50.80
2018-03-07T12:59:10.225Z,51.20
2018-03-07T13:01:37.689Z,51.60
2018-03-07T13:04:05.941Z,52.30
2018-03-07T13:06:33.389Z,52.00
2018-03-07T13:09:00.848Z,52.40
2018-03-07T13:11:28.313Z,52.50
2018-03-07T13:13:55.762Z,52.40
2018-03-07T13:16:23.230Z,52.60
2018-03-07T13:18:50.771Z,52.90
2018-03-07T13:21:18.280Z,53.10
2018-03-07T13:23:45.730Z,53.30
2018-03-07T13:26:13.973Z,52.70
2018-03-07T13:28:41.427Z,52.80
2018-03-07T13:31:08.880Z,52.60
2018-03-07T13:33:36.341Z,51.70
2018-03-07T13:36:03.792Z,51.70
2018-03-07T13:38:31.249Z,51.60
2018-03-07T13:40:58.713Z,52.40
2018-03-07T13:43:26.165Z,52.10
2018-03-07T13:45:53.633Z,52.00
2018-03-07T13:48:21.085Z,51.60
2018-03-07T13:50:48.646Z,51.90
2018-03-07T13:53:16.054Z,52.80
2018-03-07T13:55:43.523Z,52.10
2018-03-07T13:58:10.998Z,52.20
2018-03-07T14:00:38.466Z,51.20
2018-03-07T14:03:05.943Z,49.90
2018-03-07T14:05:34.159Z,50.40
2018-03-07T14:08:01.642Z,50.40
2018-03-07T14:10:29.116Z,50.30
2018-03-07T14:12:57.361Z,49.70
2018-03-07T14:15:24.832Z,49.60
2018-03-07T14:17:52.348Z,48.30
2018-03-07T14:20:20.527Z,47.10
2018-03-07T14:22:48.010Z,47.10
2018-03-07T14:25:15.494Z,46.40
2018-03-07T14:27:43.790Z,44.80
2018-03-07T14:30:11.261Z,44.70
2018-03-07T14:32:38.705Z,43.40
2018-03-07T14:35:06.223Z,43.60
2018-03-07T14:37:33.691Z,42.00
2018-03-07T14:40:01.929Z,42.30
2018-03-07T14:42:29.397Z,42.20
2018-03-07T14:44:56.917Z,42.70
2018-03-07T14:47:24.372Z,42.40
2018-03-07T14:49:51.830Z,41.30
2018-03-07T14:52:19.306Z,41.00
2018-03-07T14:54:46.777Z,40.20
2018-03-07T14:57:14.226Z,39.50
2018-03-07T14:59:41.716Z,39.50
2018-03-07T15:02:09.953Z,41.00
2018-03-07T15:04:37.410Z,41.00
2018-03-07T15:07:04.909Z,41.30
2018-03-07T15:09:32.366Z,41.80
2018-03-07T15:11:59.890Z,42.40
2018-03-07T15:14:27.342Z,41.70
2018-03-07T15:16:54.841Z,42.50
2018-03-07T15:19:22.297Z,42.00
2018-03-07T15:21:49.749Z,41.10
2018-03-07T15:24:17.990Z,39.20
2018-03-07T15:26:45.471Z,39.20
2018-03-07T15:29:13.703Z,38.90
2018-03-07T15:31:41.182Z,38.80
2018-03-07T15:34:09.404Z,40.30
2018-03-07T15:36:36.886Z,40.20
2018-03-07T15:39:04.363Z,41.20
2018-03-07T15:41:31.847Z,43.30
2018-03-07T15:44:00.085Z,44.70
2018-03-07T15:46:27.645Z,44.70
2018-03-07T15:48:55.104Z,45.40
2018-03-07T15:51:22.557Z,45.70
2018-03-07T15:53:50.041Z,45.90
2018-03-07T15:56:18.278Z,47.00
2018-03-07T15:58:45.740Z,46.90
2018-03-07T16:01:13.213Z,47.00
2018-03-07T16:03:40.672Z,46.40
2018-03-07T16:06:08.157Z,46.40
2018-03-07T16:08:35.626Z,46.60
2018-03-07T16:11:03.105Z,47.00
2018-03-07T16:13:31.325Z,47.80
2018-03-07T16:15:59.569Z,48.10
2018-03-07T16:18:27.022Z,48.20
2018-03-07T16:20:54.493Z,48.40
2018-03-07T16:23:21.940Z,48.60
2018-03-07T16:25:49.401Z,49.00
2018-03-07T16:28:16.874Z,49.20
2018-03-07T16:30:45.101Z,49.70
2018-03-07T16:33:12.560Z,49.70
2018-03-07T16:35:40.033Z,49.90
2018-03-07T16:38:07.516Z,50.00
2018-03-07T16:40:35.753Z,50.00
2018-03-07T16:43:03.220Z,50.00
2018-03-07T16:45:30.687Z,50.20
2018-03-07T16:48:00.509Z,50.10
2018-03-07T16:50:28.756Z,50.50
2018-03-07T16:52:56.249Z,50.50
2018-03-07T16:55:24.465Z,50.20
2018-03-07T16:57:52.038Z,50.20
2018-03-07T17:00:19.489Z,50.00
2018-03-07T17:02:46.937Z,49.70
2018-03-07T17:05:14.397Z,49.80
2018-03-07T17:07:42.618Z,50.40
2018-03-07T17:10:10.840Z,50.70
2018-03-07T17:12:38.302Z,50.80
2018-03-07T17:15:05.757Z,50.90
2018-03-07T17:17:33.205Z,51.20
2018-03-07T17:20:00.676Z,51.80
2018-03-07T17:22:28.125Z,52.20
2018-03-07T17:24:55.578Z,52.60
2018-03-07T17:27:23.079Z,53.00
2018-03-07T17:29:51.448Z,53.70
2018-03-07T17:32:19.081Z,53.70
2018-03-07T17:34:46.563Z,54.10
2018-03-07T17:37:14.713Z,54.40
2018-03-07T17:39:42.169Z,54.70
2018-03-07T17:42:09.913Z,54.80
2018-03-07T17:44:37.515Z,55.10
2018-03-07T17:47:05.050Z,55.30
2018-03-07T17:49:32.522Z,55.60
2018-03-07T17:52:00.002Z,55.80
2018-03-07T17:54:27.462Z,56.10
2018-03-07T17:56:54.937Z,56.30
2018-03-07T17:59:22.393Z,56.60
2018-03-07T18:01:49.849Z,56.90
2018-03-07T18:04:17.344Z,57.00
2018-03-07T18:06:44.818Z,57.40
2018-03-07T18:09:12.295Z,57.70
2018-03-07T18:11:39.773Z,57.90
2018-03-07T18:14:07.298Z,58.10
2018-03-07T18:16:35.586Z,58.90
2018-03-07T18:19:03.181Z,58.80
2018-03-07T18:21:30.680Z,59.20
2018-03-07T18:23:58.964Z,59.80
2018-03-07T18:26:26.546Z,59.80
2018-03-07T18:28:54.053Z,60.10
2018-03-07T18:31:22.487Z,60.40
2018-03-07T18:33:49.961Z,60.70
2018-03-07T18:36:18.582Z,61.10
2018-03-07T18:38:47.000Z,61.90
2018-03-07T18:41:14.663Z,61.90
2018-03-07T18:43:42.953Z,62.30
2018-03-07T18:46:10.666Z,62.50
2018-03-07T18:48:38.220Z,62.70
2018-03-07T18:51:06.982Z,63.10
2018-03-07T18:53:35.406Z,63.10
2018-03-07T18:56:04.886Z,63.30
2018-03-07T18:58:33.190Z,63.60
2018-03-07T19:01:01.144Z,63.60
2018-03-07T19:03:28.774Z,63.70
2018-03-07T19:05:57.049Z,64.10
2018-03-07T19:08:24.839Z,64.00
2018-03-07T19:10:53.960Z,64.00
2018-03-07T19:13:21.670Z,63.90
2018-03-07T19:15:55.234Z,64.80
2018-03-07T19:18:23.388Z,64.50
2018-03-07T19:20:50.850Z,64.50
2018-03-07T19:23:18.332Z,65.00
2018-03-07T19:25:46.810Z,65.20
2018-03-07T19:28:14.316Z,65.50
2018-03-07T19:30:42.660Z,66.20
2018-03-07T19:33:10.171Z,66.20
2018-03-07T19:35:38.410Z,67.20
2018-03-07T19:38:06.766Z,67.60
2018-03-07T19:40:34.220Z,67.60
2018-03-07T19:43:01.701Z,68.10
2018-03-07T19:45:29.926Z,69.10
2018-03-07T19:47:57.499Z,69.20
2018-03-07T19:50:25.100Z,69.80
2018-03-07T19:52:52.569Z,70.30
2018-03-07T19:55:20.072Z,70.90
2018-03-07T19:57:47.532Z,71.30
2018-03-07T20:00:15.021Z,71.60
2018-03-07T20:02:43.270Z,71.80
2018-03-07T20:05:10.839Z,71.70
2018-03-07T20:07:38.281Z,71.80
2018-03-07T20:10:05.830Z,71.80
2018-03-07T20:12:33.276Z,71.90
2018-03-07T20:15:00.762Z,71.90
2018-03-07T20:17:28.205Z,71.70
2018-03-07T20:19:55.669Z,71.70
2018-03-07T20:22:23.121Z,71.90
2018-03-07T20:24:50.656Z,71.70
2018-03-07T20:27:18.115Z,71.50
2018-03-07T20:29:45.585Z,71.60
2018-03-07T20:32:13.077Z,71.70
2018-03-07T20:34:40.534Z,71.70
2018-03-07T20:37:07.985Z,72.00
2018-03-07T20:39:35.467Z,72.00
2018-03-07T20:42:02.913Z,72.10
2018-03-07T20:44:30.386Z,72.10
2018-03-07T20:46:57.862Z,72.20
2018-03-07T20:49:26.163Z,72.00
2018-03-07T20:51:53.617Z,71.90
2018-03-07T20:54:21.202Z,71.90
2018-03-07T20:56:49.442Z,71.70
2018-03-07T20:59:16.893Z,71.70
2018-03-07T21:01:44.392Z,71.60
2018-03-07T21:04:11.857Z,71.70
2018-03-07T21:06:39.328Z,71.70
2018-03-07T21:09:06.791Z,71.60
2018-03-07T21:11:34.274Z,71.60
2018-03-07T21:14:01.730Z,71.40
2018-03-07T21:16:29.183Z,71.20
2018-03-07T21:18:56.662Z,71.30
2018-03-07T21:21:24.877Z,71.20
2018-03-07T21:23:52.364Z,71.10
2018-03-07T21:26:20.583Z,71.30
2018-03-07T21:28:48.039Z,71.80
2018-03-07T21:31:15.532Z,71.20
2018-03-07T21:33:42.993Z,71.30
2018-03-07T21:36:10.478Z,71.60
2018-03-07T21:38:37.932Z,71.80
2018-03-07T21:41:05.403Z,71.70
2018-03-07T21:43:33.633Z,71.60
2018-03-07T21:46:01.086Z,71.60
2018-03-07T21:48:28.569Z,71.70
2018-03-07T21:50:56.026Z,71.90
2018-03-07T21:53:23.506Z,71.70
2018-03-07T21:55:51.722Z,71.90
2018-03-07T21:58:19.202Z,71.80
2018-03-07T22:00:46.674Z,71.40
2018-03-07T22:03:14.158Z,71.30
2018-03-07T22:05:41.605Z,71.20
2018-03-07T22:08:09.837Z,70.70
2018-03-07T22:10:37.288Z,70.70
2018-03-07T22:13:04.773Z,70.80
2018-03-07T22:15:32.226Z,70.60
2018-03-07T22:17:59.715Z,71.00
2018-03-07T22:20:27.162Z,70.30
2018-03-07T22:22:54.646Z,69.90
2018-03-07T22:25:22.121Z,70.30
2018-03-07T22:27:49.569Z,70.60
2018-03-07T22:30:17.050Z,70.50
2018-03-07T22:32:44.518Z,70.30
2018-03-07T22:35:11.968Z,70.30
2018-03-07T22:37:39.445Z,70.30
2018-03-07T22:40:07.660Z,69.70
2018-03-07T22:42:35.144Z,69.70
2018-03-07T22:45:02.594Z,69.80
2018-03-07T22:47:30.049Z,69.80
2018-03-07T22:49:57.506Z,69.70
2018-03-07T22:52:25.012Z,69.80
2018-03-07T22:54:52.492Z,69.60
2018-03-07T22:57:19.942Z,69.50
2018-03-07T22:59:47.398Z,69.50
2018-03-07T23:02:14.877Z,69.40
2018-03-07T23:04:43.090Z,69.30
2018-03-07T23:07:11.337Z,69.40
2018-03-07T23:09:38.800Z,69.40
2018-03-07T23:12:06.281Z,69.50
2018-03-07T23:14:34.509Z,69.50
2018-03-07T23:17:01.966Z,69.50
2018-03-07T23:19:29.440Z,69.50
2018-03-07T23:21:56.906Z,69.50
2018-03-07T23:24:24.363Z,69.40
2018-03-07T23:26:51.828Z,69.40
2018-03-07T23:29:20.070Z,69.10
2018-03-07T23:31:47.517Z,69.00
2018-03-07T23:34:14.993Z,69.20
2018-03-07T23:36:42.446Z,68.90
2018-03-07T23:39:09.925Z,68.60
2018-03-07T23:41:38.149Z,68.50
2018-03-07T23:44:05.614Z,68.50
2018-03-07T23:46:33.204Z,68.10
2018-03-07T23:49:00.662Z,68.10
2018-03-07T23:51:28.112Z,68.00
2018-03-07T23:53:55.581Z,68.00
2018-03-07T23:56:23.831Z,67.50
2018-03-07T23:58:51.281Z,67.50
